Time;durP1;ratioP1;P1;durP2;ratioP2;P2;SDS_P1;SDS_P2;PMS_P1;PMS_P2;Temp;Humidity;BMP_temperature;BMP_pressure;BME280_temperature;BME280_humidity;BME280_pressure;Samples;Min_cycle;Max_cycle;Signal;HPM_P1;HPM_P2
2023/06/04 00:02:28;;;;;;;2.40;2.20;;;;;;;10.86;73.79;97032.63;4982409;28;20754;-69
2023/06/04 00:04:55;;;;;;;2.17;2.07;;;;;;;10.98;73.88;97055.97;5006526;28;20216;-64
2023/06/04 00:07:23;;;;;;;1.97;1.87;;;;;;;11.01;74.91;97050.31;5013536;28;20251;-68
2023/06/04 00:09:51;;;;;;;2.93;2.30;;;;;;;10.96;73.03;97050.88;4984441;28;20208;-67
2023/06/04 00:12:18;;;;;;;3.20;1.70;;;;;;;11.03;73.68;97048.28;4986674;28;20841;-66
2023/06/04 00:14:47;;;;;;;2.27;2.17;;;;;;;10.99;71.55;97049.69;5006413;28;20286;-65
2023/06/04 00:17:15;;;;;;;2.17;2.07;;;;;;;10.96;71.50;97048.22;5013977;28;20193;-69
2023/06/04 00:19:43;;;;;;;2.57;2.00;;;;;;;10.89;73.51;97046.50;4966779;28;20588;-66
2023/06/04 00:22:10;;;;;;;1.83;1.73;;;;;;;10.79;73.47;97037.06;5013835;28;20258;-65
2023/06/04 00:24:40;;;;;;;2.00;1.90;;;;;;;10.75;76.41;97042.91;4982275;28;20810;-67
2023/06/04 00:27:08;;;;;;;1.97;1.87;;;;;;;10.71;76.19;97038.00;5008961;28;20528;-67
2023/06/04 00:29:36;;;;;;;3.90;2.20;;;;;;;10.63;78.76;97032.00;4985082;28;20282;-66
2023/06/04 00:32:05;;;;;;;2.17;2.07;;;;;;;10.68;77.52;97035.72;5013352;28;20196;-67
2023/06/04 00:34:33;;;;;;;2.00;1.90;;;;;;;10.59;79.97;97033.38;4973502;28;20651;-68
2023/06/04 00:37:02;;;;;;;2.20;2.10;;;;;;;10.53;80.92;97038.41;5007519;28;20303;-65
2023/06/04 00:39:30;;;;;;;2.43;2.00;;;;;;;10.36;84.42;97031.69;5007252;28;20290;-69
2023/06/04 00:41:57;;;;;;;1.87;1.77;;;;;;;10.32;89.67;97044.47;5010696;28;20255;-64
2023/06/04 00:44:25;;;;;;;2.30;2.10;;;;;;;10.37;91.29;97043.91;4981501;28;20311;-67
2023/06/04 00:46:53;;;;;;;5.77;2.00;;;;;;;10.38;91.86;97037.59;5008673;28;20683;-68
2023/06/04 00:49:23;;;;;;;2.47;1.70;;;;;;;10.31;92.52;97045.47;4995318;28;20664;-68
2023/06/04 00:51:51;;;;;;;2.87;2.67;;;;;;;10.24;95.31;97034.81;4994756;28;20204;-66
2023/06/04 00:54:20;;;;;;;2.43;2.23;;;;;;;10.28;94.08;97045.84;5011285;28;20292;-70
2023/06/04 00:56:48;;;;;;;2.53;2.03;;;;;;;10.20;94.43;97041.47;4987206;28;20374;-63
2023/06/04 00:59:16;;;;;;;3.23;2.47;;;;;;;10.05;94.18;97008.91;4985757;28;20251;-69
2023/06/04 01:01:48;;;;;;;2.20;2.10;;;;;;;10.18;95.91;97040.03;5008319;28;20208;-67
2023/06/04 01:04:19;;;;;;;2.00;1.90;;;;;;;10.17;96.39;97038.38;5014614;28;20255;-69
2023/06/04 01:06:51;;;;;;;2.27;2.10;;;;;;;10.15;95.52;97038.53;4970512;28;20846;-65
2023/06/04 01:09:19;;;;;;;2.80;2.20;;;;;;;10.07;96.89;97038.66;5005859;28;20326;-70
2023/06/04 01:11:46;;;;;;;2.50;2.30;;;;;;;10.05;94.93;97030.91;4986732;28;20618;-64
2023/06/04 01:14:15;;;;;;;2.30;2.20;;;;;;;9.99;94.89;97035.09;4984088;28;20647;-68
2023/06/04 01:16:48;;;;;;;1.87;1.77;;;;;;;10.00;94.09;97035.91;5003773;28;20219;-66
2023/06/04 01:19:33;;;;;;;1.80;1.70;;;;;;;9.93;93.97;97045.59;5007225;28;20236;-69
2023/06/04 01:22:06;;;;;;;2.77;2.00;;;;;;;9.88;93.34;97045.31;4968591;28;20706;-68
2023/06/04 01:24:36;;;;;;;2.70;2.03;;;;;;;9.85;93.84;97041.25;5008242;28;20207;-65
2023/06/04 01:27:05;;;;;;;2.10;2.00;;;;;;;9.87;93.93;97041.03;5008653;28;20660;-66
2023/06/04 01:29:36;;;;;;;2.00;1.90;;;;;;;9.85;92.94;97042.03;4980147;28;20833;-66
2023/06/04 01:32:04;;;;;;;2.60;2.40;;;;;;;9.77;93.41;97031.56;5002942;28;20203;-68
2023/06/04 01:34:44;;;;;;;2.33;2.07;;;;;;;9.77;95.65;97047.44;5008751;28;20771;-66
2023/06/04 01:37:13;;;;;;;2.40;2.27;;;;;;;9.66;96.30;97029.34;4968949;28;20380;-70
2023/06/04 01:39:41;;;;;;;2.27;2.07;;;;;;;9.62;98.09;97025.44;5010326;28;20213;-67
2023/06/04 01:42:10;;;;;;;2.17;2.07;;;;;;;9.64;98.13;97042.78;4981873;28;20201;-68
2023/06/04 01:44:37;;;;;;;3.50;2.30;;;;;;;9.61;100.00;97044.94;4977207;28;20532;-66
2023/06/04 01:47:05;;;;;;;2.53;2.33;;;;;;;9.54;100.00;97050.16;5008343;28;20247;-65
2023/06/04 01:49:33;;;;;;;2.73;2.20;;;;;;;9.50;100.00;97044.41;5004611;28;20224;-68
2023/06/04 01:52:00;;;;;;;1.73;1.67;;;;;;;9.45;100.00;97041.47;4965397;28;20632;-67
2023/06/04 01:54:30;;;;;;;2.33;1.90;;;;;;;9.34;100.00;97045.38;5003138;28;20752;-67
2023/06/04 01:56:57;;;;;;;2.03;1.93;;;;;;;9.32;100.00;97047.38;4986476;28;20248;-67
2023/06/04 01:59:25;;;;;;;3.03;2.10;;;;;;;9.26;100.00;97056.03;5002313;28;20429;-69
2023/06/04 02:01:52;;;;;;;2.33;2.10;;;;;;;9.21;100.00;97056.53;4985736;28;20436;-68
2023/06/04 02:04:21;;;;;;;2.33;2.20;;;;;;;9.16;100.00;97058.91;5005260;28;20325;-68
2023/06/04 02:06:48;;;;;;;2.33;2.00;;;;;;;9.10;100.00;97059.63;4966283;28;20702;-64
2023/06/04 02:09:16;;;;;;;3.03;2.47;;;;;;;9.08;100.00;97065.06;5010432;28;20283;-69
2023/06/04 02:11:45;;;;;;;2.40;2.20;;;;;;;9.06;100.00;97058.34;5010704;28;20323;-65
2023/06/04 02:14:12;;;;;;;6.57;2.47;;;;;;;9.02;100.00;97057.84;5003826;28;20258;-68
2023/06/04 02:16:40;;;;;;;2.43;2.23;;;;;;;9.03;100.00;97061.34;4981447;28;21142;-66
2023/06/04 02:19:08;;;;;;;2.40;2.30;;;;;;;9.00;100.00;97065.16;5011839;28;20224;-67
2023/06/04 02:21:35;;;;;;;2.43;2.23;;;;;;;8.95;100.00;97062.22;5011011;28;20255;-66
2023/06/04 02:24:03;;;;;;;2.10;2.00;;;;;;;8.93;100.00;97066.84;4965293;28;20319;-67
2023/06/04 02:26:32;;;;;;;2.50;2.30;;;;;;;8.88;100.00;97056.00;5002079;28;20579;-66
2023/06/04 02:29:01;;;;;;;2.07;1.97;;;;;;;8.89;100.00;97069.00;4987230;28;20227;-66
2023/06/04 02:31:28;;;;;;;2.87;2.20;;;;;;;8.90;100.00;97068.03;4988017;28;20242;-68
2023/06/04 02:33:56;;;;;;;3.13;2.13;;;;;;;8.88;100.00;97067.38;5010758;28;20201;-66
2023/06/04 02:36:24;;;;;;;2.93;2.17;;;;;;;8.88;100.00;97066.56;5011320;28;20270;-70
2023/06/04 02:38:52;;;;;;;2.30;2.17;;;;;;;8.80;100.00;97065.63;4958047;28;20220;-67
2023/06/04 02:41:20;;;;;;;2.10;2.00;;;;;;;8.79;100.00;97073.72;5010341;28;20287;-69
2023/06/04 02:43:47;;;;;;;2.73;2.30;;;;;;;8.78;100.00;97067.63;4985899;28;20367;-68
2023/06/04 02:46:16;;;;;;;2.40;2.20;;;;;;;8.71;100.00;97071.94;5006635;28;20262;-70
2023/06/04 02:48:44;;;;;;;2.53;2.37;;;;;;;8.72;100.00;97072.78;4990438;28;20783;-69
2023/06/04 02:51:12;;;;;;;2.37;2.17;;;;;;;8.66;100.00;97079.56;5009109;28;20235;-70
2023/06/04 02:53:40;;;;;;;2.53;2.33;;;;;;;8.46;100.00;97048.31;4955293;28;20923;-69
2023/06/04 02:56:08;;;;;;;2.57;2.37;;;;;;;8.64;100.00;97071.00;5009439;28;20251;-67
2023/06/04 02:58:39;;;;;;;3.00;2.10;;;;;;;8.60;100.00;97075.81;5006188;28;20434;-69
2023/06/04 03:01:06;;;;;;;3.23;2.00;;;;;;;8.34;100.00;97042.59;5007790;28;20196;-69
2023/06/04 03:03:36;;;;;;;2.80;2.00;;;;;;;8.53;100.00;97064.31;4988148;28;20370;-67
2023/06/04 03:06:04;;;;;;;2.17;2.03;;;;;;;8.53;100.00;97064.31;5010475;28;20258;-68
2023/06/04 03:08:32;;;;;;;3.27;2.23;;;;;;;8.57;100.00;97067.41;4964649;28;21520;-68
2023/06/04 03:11:00;;;;;;;2.10;2.00;;;;;;;8.56;100.00;97076.34;5003999;28;20287;-65
2023/06/04 03:13:28;;;;;;;4.30;2.30;;;;;;;8.57;100.00;97078.81;5004018;28;20200;-68
2023/06/04 03:15:56;;;;;;;2.40;2.23;;;;;;;8.59;100.00;97074.19;5006607;28;20295;-66
2023/06/04 03:18:24;;;;;;;2.93;2.23;;;;;;;8.58;100.00;97079.63;4987551;28;20234;-68
2023/06/04 03:20:53;;;;;;;2.13;2.03;;;;;;;8.53;100.00;97080.16;5014622;28;20664;-66
2023/06/04 03:23:20;;;;;;;2.60;2.40;;;;;;;8.54;100.00;97093.19;5018151;28;20595;-68
2023/06/04 03:25:48;;;;;;;2.40;2.30;;;;;;;8.55;100.00;97091.38;4972955;28;20212;-66
2023/06/04 03:28:16;;;;;;;2.83;2.33;;;;;;;8.51;100.00;97097.97;5009912;28;20347;-70
2023/06/04 03:30:43;;;;;;;2.40;2.30;;;;;;;8.51;100.00;97104.09;4989659;28;20505;-69
2023/06/04 03:33:11;;;;;;;2.43;2.23;;;;;;;8.48;100.00;97093.00;5019184;28;20530;-68
2023/06/04 03:35:41;;;;;;;3.10;2.90;;;;;;;8.43;100.00;97104.09;4994236;28;20444;-67
2023/06/04 03:38:10;;;;;;;2.03;1.93;;;;;;;8.32;100.00;97091.25;5011724;28;20254;-70
2023/06/04 03:40:37;;;;;;;3.20;2.37;;;;;;;8.43;100.00;97104.09;4971741;28;22222;-68
2023/06/04 03:43:06;;;;;;;3.03;2.00;;;;;;;8.43;100.00;97116.47;5011329;28;20200;-66
2023/06/04 03:45:33;;;;;;;2.60;2.40;;;;;;;8.43;100.00;97114.66;4987496;28;21016;-68
2023/06/04 03:48:01;;;;;;;2.10;2.00;;;;;;;8.40;100.00;97113.19;5019801;28;20315;-67
2023/06/04 03:50:28;;;;;;;2.40;2.20;;;;;;;8.47;100.00;97117.75;4991651;28;20216;-68
2023/06/04 03:52:56;;;;;;;2.57;2.37;;;;;;;8.52;100.00;97112.81;5013032;28;20212;-70
2023/06/04 03:55:25;;;;;;;2.60;2.20;;;;;;;8.51;100.00;97108.53;5014690;28;20980;-69
2023/06/04 03:57:53;;;;;;;2.43;2.23;;;;;;;8.52;100.00;97104.88;4971066;28;20219;-69
2023/06/04 04:00:21;;;;;;;3.50;2.30;;;;;;;8.58;100.00;97103.38;5000739;28;20228;-69
2023/06/04 04:02:49;;;;;;;2.70;2.30;;;;;;;8.54;100.00;97108.22;5010012;28;20782;-67
2023/06/04 04:05:17;;;;;;;2.43;2.23;;;;;;;8.56;100.00;97103.59;4994975;28;20213;-70
2023/06/04 04:07:44;;;;;;;2.40;2.30;;;;;;;8.63;100.00;97108.97;4986681;28;20802;-66
2023/06/04 04:10:12;;;;;;;2.40;2.10;;;;;;;8.73;100.00;97112.25;5012244;28;20776;-69
2023/06/04 04:12:41;;;;;;;2.47;2.10;;;;;;;8.76;100.00;97105.75;4967883;28;20959;-67
2023/06/04 04:15:09;;;;;;;3.10;2.60;;;;;;;8.85;100.00;97110.00;5009633;28;20331;-69
2023/06/04 04:17:37;;;;;;;3.10;2.33;;;;;;;8.93;100.00;97107.31;4991666;28;20234;-66
2023/06/04 04:20:06;;;;;;;3.27;2.10;;;;;;;8.98;100.00;97110.25;4997366;28;20240;-70
2023/06/04 04:22:34;;;;;;;2.43;2.23;;;;;;;9.03;100.00;97107.06;5015393;28;20482;-66
2023/06/04 04:25:03;;;;;;;2.57;2.37;;;;;;;9.12;100.00;97108.69;5011091;28;20212;-68
2023/06/04 04:27:31;;;;;;;2.10;2.00;;;;;;;9.18;100.00;97111.63;5005636;28;20221;-68
2023/06/04 04:30:00;;;;;;;4.83;2.60;;;;;;;9.21;100.00;97113.91;4971309;28;20297;-68
2023/06/04 04:32:28;;;;;;;2.60;2.40;;;;;;;9.26;100.00;97111.53;4989449;28;21040;-67
2023/06/04 04:34:57;;;;;;;3.83;2.50;;;;;;;9.38;100.00;97117.25;4992562;28;20286;-66
2023/06/04 04:37:25;;;;;;;3.10;2.30;;;;;;;9.48;100.00;97119.66;5007663;28;21107;-65
2023/06/04 04:39:53;;;;;;;3.87;2.40;;;;;;;9.49;100.00;97122.09;5011425;28;20614;-66
2023/06/04 04:42:21;;;;;;;2.57;2.37;;;;;;;9.67;100.00;97124.41;5004712;28;20319;-70
2023/06/04 04:44:48;;;;;;;2.40;2.20;;;;;;;9.59;100.00;97107.78;4964298;28;20302;-66
2023/06/04 04:47:18;;;;;;;2.27;2.07;;;;;;;9.83;100.00;97117.31;5005015;28;20595;-68
2023/06/04 04:49:45;;;;;;;2.40;2.17;;;;;;;9.91;100.00;97113.78;5013231;28;20234;-67
2023/06/04 04:52:16;;;;;;;2.37;2.27;;;;;;;9.96;100.00;97121.97;4988646;28;20309;-69
2023/06/04 04:54:44;;;;;;;2.40;2.30;;;;;;;10.09;100.00;97114.25;5007696;28;20270;-64
2023/06/04 04:57:12;;;;;;;2.57;2.43;;;;;;;10.30;100.00;97117.97;5010172;28;20288;-68
2023/06/04 04:59:41;;;;;;;3.10;2.17;;;;;;;10.33;100.00;97095.59;5006743;28;20204;-67
2023/06/04 05:02:08;;;;;;;3.83;2.23;;;;;;;10.48;100.00;97109.66;4962724;28;20686;-67
2023/06/04 05:04:37;;;;;;;4.43;2.57;;;;;;;10.61;100.00;97113.50;4992587;28;20220;-70
2023/06/04 05:07:05;;;;;;;3.13;2.00;;;;;;;10.80;100.00;97114.75;4992352;28;20239;-68
2023/06/04 05:09:33;;;;;;;2.03;1.93;;;;;;;10.86;100.00;97127.25;5005256;28;20398;-70
2023/06/04 05:12:01;;;;;;;6.40;2.90;;;;;;;10.92;100.00;97129.13;5012868;28;20738;-68
2023/06/04 05:14:29;;;;;;;2.30;2.20;;;;;;;10.98;100.00;97124.91;5003736;28;20863;-66
2023/06/04 05:16:57;;;;;;;2.77;2.10;;;;;;;11.20;100.00;97122.28;4963455;28;20307;-69
2023/06/04 05:19:24;;;;;;;2.93;2.20;;;;;;;11.27;100.00;97133.75;4986989;28;20231;-67
2023/06/04 05:21:54;;;;;;;2.50;2.30;;;;;;;11.37;100.00;97138.75;4991731;28;20594;-67
2023/06/04 05:24:21;;;;;;;2.20;2.03;;;;;;;11.27;100.00;97110.72;5011303;28;20204;-69
2023/06/04 05:26:49;;;;;;;3.10;2.37;;;;;;;11.51;100.00;97135.19;5004968;28;20823;-67
2023/06/04 05:29:16;;;;;;;2.57;2.33;;;;;;;11.68;100.00;97142.91;5002125;28;20315;-66
2023/06/04 05:31:44;;;;;;;2.30;2.20;;;;;;;11.76;100.00;97134.78;5011427;28;20224;-66
2023/06/04 05:34:15;;;;;;;2.00;1.90;;;;;;;12.07;100.00;97138.91;4944231;23;20313;-67
2023/06/04 05:36:43;;;;;;;3.83;2.40;;;;;;;12.26;100.00;97140.06;5009321;28;21098;-67
2023/06/04 05:39:12;;;;;;;2.90;2.37;;;;;;;12.28;100.00;97146.00;5047875;28;20683;-66
2023/06/04 05:41:40;;;;;;;2.57;2.10;;;;;;;12.52;95.94;97145.69;5041602;28;20284;-67
2023/06/04 05:44:08;;;;;;;2.57;2.43;;;;;;;12.48;97.10;97150.56;5035099;28;20717;-67
2023/06/04 05:46:36;;;;;;;2.93;2.50;;;;;;;12.61;94.59;97155.13;5042167;28;20211;-68
2023/06/04 05:49:04;;;;;;;2.77;2.07;;;;;;;12.82;92.35;97150.75;5001798;28;20202;-68
2023/06/04 05:51:32;;;;;;;2.40;2.20;;;;;;;12.95;90.69;97156.09;5030105;28;20234;-67
2023/06/04 05:53:59;;;;;;;2.43;2.13;;;;;;;12.89;91.67;97154.22;5020101;28;20900;-67
2023/06/04 05:56:28;;;;;;;2.23;2.13;;;;;;;13.00;91.77;97164.28;5042605;28;20210;-69
2023/06/04 05:58:56;;;;;;;2.73;2.53;;;;;;;13.09;91.76;97154.28;5043464;28;20436;-65
2023/06/04 06:01:24;;;;;;;2.63;2.50;;;;;;;13.16;91.71;97155.13;5041548;28;20231;-67
2023/06/04 06:03:52;;;;;;;2.60;2.20;;;;;;;13.24;91.36;97163.94;4997839;28;20256;-68
2023/06/04 06:06:20;;;;;;;3.37;2.40;;;;;;;13.39;93.54;97163.75;5023735;28;20261;-66
2023/06/04 06:08:49;;;;;;;2.67;2.47;;;;;;;13.58;91.18;97160.34;5021722;28;20314;-66
2023/06/04 06:11:17;;;;;;;4.13;2.40;;;;;;;13.77;89.28;97152.56;5047506;28;20222;-66
2023/06/04 06:13:46;;;;;;;2.03;1.93;;;;;;;13.83;85.98;97165.06;5042007;28;20929;-66
2023/06/04 06:16:14;;;;;;;2.77;2.20;;;;;;;13.86;88.65;97156.66;5018389;28;20215;-67
2023/06/04 06:18:42;;;;;;;2.80;2.50;;;;;;;14.09;87.21;97160.72;5046367;28;20534;-66
2023/06/04 06:21:10;;;;;;;3.40;2.33;;;;;;;14.24;81.69;97167.69;4972913;28;20314;-65
2023/06/04 06:23:37;;;;;;;3.43;2.43;;;;;;;14.17;83.52;97163.16;5011839;28;20475;-66
2023/06/04 06:26:07;;;;;;;2.40;2.30;;;;;;;14.26;81.75;97155.78;5053097;28;20677;-65
2023/06/04 06:28:36;;;;;;;2.00;1.90;;;;;;;14.32;86.99;97160.28;5047541;28;20416;-71
2023/06/04 06:31:06;;;;;;;3.40;3.10;;;;;;;14.17;85.45;97171.16;5047356;28;20204;-70
2023/06/04 06:33:34;;;;;;;2.70;2.33;;;;;;;14.24;91.50;97167.69;5051092;28;20640;-68
2023/06/04 06:36:01;;;;;;;2.70;2.50;;;;;;;14.25;86.54;97170.13;5004748;28;20211;-70
2023/06/04 06:38:31;;;;;;;2.57;2.37;;;;;;;14.39;84.67;97170.94;5028027;28;20402;-70
2023/06/04 06:40:59;;;;;;;2.77;2.37;;;;;;;14.46;84.30;97171.72;5027171;28;20295;-69
2023/06/04 06:43:27;;;;;;;2.70;2.50;;;;;;;14.46;85.20;97177.06;5041623;28;20818;-69
2023/06/04 06:45:54;;;;;;;3.03;2.03;;;;;;;14.53;91.14;97168.22;5048407;28;20728;-70
2023/06/04 06:48:23;;;;;;;2.47;2.37;;;;;;;14.46;84.66;97171.72;5048382;28;20709;-72
2023/06/04 06:50:51;;;;;;;2.40;2.20;;;;;;;14.55;79.64;97175.00;5051330;28;20491;-69
2023/06/04 06:53:19;;;;;;;2.87;2.70;;;;;;;14.71;78.12;97168.41;4994304;28;20737;-71
2023/06/04 06:55:47;;;;;;;3.03;2.60;;;;;;;14.87;78.01;97177.78;5026876;28;20206;-68
2023/06/04 06:58:15;;;;;;;2.33;2.13;;;;;;;15.07;76.06;97165.38;5049062;28;20191;-71
2023/06/04 07:00:42;;;;;;;4.00;2.63;;;;;;;15.24;74.87;97174.53;5044662;28;20212;-70
2023/06/04 07:03:10;;;;;;;2.40;2.20;;;;;;;15.34;75.84;97180.22;5051704;28;20302;-72
2023/06/04 07:05:39;;;;;;;2.83;2.30;;;;;;;15.14;77.04;97180.31;5047813;28;20320;-71
2023/06/04 07:08:07;;;;;;;3.37;2.40;;;;;;;15.08;81.44;97186.50;5000931;28;20249;-72
2023/06/04 07:10:35;;;;;;;2.40;2.30;;;;;;;15.21;79.81;97182.94;5024857;28;21656;-69
2023/06/04 07:13:02;;;;;;;2.50;2.30;;;;;;;15.45;71.78;97177.91;5049889;28;20337;-70
2023/06/04 07:15:30;;;;;;;2.67;2.40;;;;;;;15.68;74.37;97182.66;5041394;28;20249;-69
2023/06/04 07:17:58;;;;;;;2.53;1.97;;;;;;;15.74;76.37;97175.66;5052063;28;20200;-68
2023/06/04 07:20:26;;;;;;;2.70;2.50;;;;;;;15.58;75.44;97177.78;5046060;28;20262;-69
2023/06/04 07:22:55;;;;;;;2.23;2.13;;;;;;;15.81;70.04;97170.22;5047211;28;20272;-70
2023/06/04 07:25:23;;;;;;;2.60;2.40;;;;;;;15.81;73.41;97173.75;4997480;28;20264;-72
2023/06/04 07:27:51;;;;;;;2.60;2.40;;;;;;;15.96;71.12;97170.78;5030451;28;20211;-71
2023/06/04 07:30:19;;;;;;;2.30;2.10;;;;;;;15.95;71.52;97177.16;5043043;28;20226;-73
2023/06/04 07:32:48;;;;;;;2.33;2.23;;;;;;;16.19;71.11;97182.69;5052714;28;20272;-70
2023/06/04 07:35:16;;;;;;;3.57;2.50;;;;;;;16.33;70.23;97178.03;5049258;28;20226;-70
2023/06/04 07:37:47;;;;;;;2.53;2.43;;;;;;;16.54;71.14;97178.66;5050240;28;20207;-71
2023/06/04 07:40:16;;;;;;;2.40;2.30;;;;;;;16.60;67.58;97175.06;4993074;28;20598;-70
2023/06/04 07:42:47;;;;;;;2.60;2.40;;;;;;;16.61;65.65;97166.00;5020684;28;20207;-72
2023/06/04 07:45:15;;;;;;;2.50;2.40;;;;;;;16.70;64.84;97178.03;5049207;28;20199;-72
2023/06/04 07:47:43;;;;;;;2.50;2.40;;;;;;;16.57;63.73;97164.84;5046236;28;20210;-74
2023/06/04 07:50:11;;;;;;;2.37;2.17;;;;;;;16.53;66.87;97171.66;5054328;28;20195;-70
2023/06/04 07:52:39;;;;;;;2.50;2.37;;;;;;;16.35;62.73;97181.28;5044404;28;20876;-72
2023/06/04 07:55:08;;;;;;;2.60;2.40;;;;;;;16.65;66.02;97169.88;4995335;28;20408;-74
2023/06/04 07:57:37;;;;;;;2.07;1.97;;;;;;;16.56;67.88;97164.00;5035604;28;20760;-72
2023/06/04 08:00:08;;;;;;;3.07;2.60;;;;;;;17.06;67.46;97167.56;5045044;28;20694;-71
2023/06/04 08:02:35;;;;;;;3.00;2.57;;;;;;;17.25;63.08;97164.84;5047484;28;20203;-73
2023/06/04 08:05:04;;;;;;;3.37;3.17;;;;;;;17.26;62.15;97159.25;5049223;28;20332;-72
2023/06/04 08:07:32;;;;;;;3.87;2.83;;;;;;;17.36;61.74;97158.69;5048551;28;20211;-73
2023/06/04 08:09:59;;;;;;;3.87;2.60;;;;;;;17.57;62.00;97159.22;5046182;28;20203;-71
2023/06/04 08:12:27;;;;;;;3.43;2.47;;;;;;;17.41;59.40;97161.50;5003344;28;20339;-73
2023/06/04 08:14:57;;;;;;;2.73;2.63;;;;;;;17.68;59.25;97163.78;5029159;28;20420;-69
2023/06/04 08:17:25;;;;;;;2.57;2.30;;;;;;;17.88;59.85;97158.09;5053141;28;20290;-70
2023/06/04 08:19:53;;;;;;;3.07;2.47;;;;;;;17.92;58.81;97159.25;5051842;28;20279;-72
2023/06/04 08:22:20;;;;;;;2.90;2.70;;;;;;;18.08;57.79;97165.84;5053235;28;20294;-71
2023/06/04 08:24:48;;;;;;;2.63;2.30;;;;;;;18.12;57.29;97160.00;5043980;28;20474;-70
2023/06/04 08:27:17;;;;;;;2.60;2.33;;;;;;;17.94;56.31;97159.84;4997952;28;20211;-71
2023/06/04 08:29:45;;;;;;;2.97;2.77;;;;;;;18.17;59.94;97160.13;5024772;28;20210;-70
2023/06/04 08:32:14;;;;;;;2.20;2.10;;;;;;;18.21;56.31;97172.84;5032456;28;20296;-72
2023/06/04 08:34:43;;;;;;;2.67;2.53;;;;;;;18.32;53.06;97170.38;5051100;28;20606;-71
2023/06/04 08:37:10;;;;;;;6.00;2.70;;;;;;;18.34;53.12;97166.41;5050396;28;20252;-69
2023/06/04 08:39:38;;;;;;;2.60;2.40;;;;;;;18.36;53.34;97168.84;5045132;28;21010;-71
2023/06/04 08:42:08;;;;;;;2.80;2.57;;;;;;;18.44;52.88;97163.16;5004996;28;20922;-70
2023/06/04 08:44:36;;;;;;;3.30;3.00;;;;;;;18.44;52.75;97173.88;5037255;28;20215;-70
2023/06/04 08:47:05;;;;;;;2.50;2.30;;;;;;;18.42;49.87;97169.78;5041559;28;20783;-68
2023/06/04 08:49:37;;;;;;;2.30;2.07;;;;;;;18.60;49.46;97172.34;5036714;28;20207;-72
2023/06/04 08:52:06;;;;;;;2.87;2.67;;;;;;;18.62;50.38;97167.56;5052505;28;20222;-71
2023/06/04 08:54:33;;;;;;;3.03;2.77;;;;;;;18.73;52.11;97165.88;5052469;28;20227;-73
2023/06/04 08:57:01;;;;;;;2.23;2.13;;;;;;;19.01;49.57;97171.56;5049871;28;20198;-73
2023/06/04 08:59:29;;;;;;;2.80;2.60;;;;;;;18.95;49.12;97158.03;4996769;28;20210;-71
2023/06/04 09:01:57;;;;;;;2.57;2.27;;;;;;;18.98;47.79;97162.13;5037972;28;20445;-69
2023/06/04 09:04:25;;;;;;;3.13;2.93;;;;;;;19.20;49.80;97169.53;5032411;28;20246;-69
2023/06/04 09:06:54;;;;;;;3.30;2.60;;;;;;;19.24;47.30;97165.28;5050856;28;20246;-69
2023/06/04 09:09:24;;;;;;;2.77;2.37;;;;;;;19.51;47.05;97167.41;5046675;28;20199;-71
2023/06/04 09:11:53;;;;;;;3.13;2.97;;;;;;;19.67;47.47;97163.91;5045641;28;20859;-71
2023/06/04 09:14:21;;;;;;;2.93;2.73;;;;;;;19.77;46.49;97165.94;5001000;28;20258;-70
2023/06/04 09:16:50;;;;;;;3.03;2.73;;;;;;;19.79;47.60;97163.81;5024166;28;20828;-73
2023/06/04 09:19:18;;;;;;;2.57;2.37;;;;;;;19.83;46.82;97169.50;5053107;28;20855;-69
2023/06/04 09:21:50;;;;;;;3.73;2.57;;;;;;;20.01;45.29;97159.63;5039934;28;20203;-68
2023/06/04 09:24:20;;;;;;;2.97;2.37;;;;;;;20.05;46.98;97153.47;5051684;28;21044;-70
2023/06/04 09:26:48;;;;;;;2.43;2.23;;;;;;;20.06;47.23;97151.63;5047278;28;20279;-71
2023/06/04 09:29:16;;;;;;;3.67;2.50;;;;;;;20.29;46.19;97150.59;4995155;28;20226;-69
2023/06/04 09:31:46;;;;;;;2.50;2.40;;;;;;;20.27;45.36;97152.72;5024280;28;20199;-69
2023/06/04 09:34:15;;;;;;;2.37;2.17;;;;;;;20.04;44.23;97151.06;5050926;28;21610;-70
2023/06/04 09:36:42;;;;;;;2.80;2.63;;;;;;;20.17;43.96;97156.09;5029094;28;20207;-72
2023/06/04 09:39:16;;;;;;;2.50;2.30;;;;;;;20.30;45.58;97154.94;5052201;28;20206;-72
2023/06/04 09:41:45;;;;;;;5.73;2.67;;;;;;;20.44;44.57;97158.06;5044226;28;20203;-71
2023/06/04 09:44:13;;;;;;;2.60;2.40;;;;;;;20.46;43.81;97155.16;4997062;28;20735;-69
2023/06/04 09:46:41;;;;;;;3.30;3.00;;;;;;;20.15;43.21;97152.81;5028489;28;20226;-72
2023/06/04 09:49:09;;;;;;;2.20;2.10;;;;;;;20.43;44.43;97153.75;5052389;28;20230;-69
2023/06/04 09:51:36;;;;;;;3.07;2.40;;;;;;;20.54;43.68;97147.44;5031761;28;20207;-72
2023/06/04 09:54:04;;;;;;;3.00;2.80;;;;;;;20.45;42.95;97148.94;5046316;28;20222;-72
2023/06/04 09:56:40;;;;;;;3.23;2.63;;;;;;;20.47;43.64;97143.31;5047380;28;20303;-75
2023/06/04 09:59:10;;;;;;;3.07;2.77;;;;;;;20.77;43.55;97137.50;4999496;28;20512;-72
2023/06/04 10:01:41;;;;;;;2.80;2.60;;;;;;;20.81;42.57;97135.97;5048718;28;20198;-72
2023/06/04 10:04:11;;;;;;;3.07;2.10;;;;;;;20.74;42.55;97132.63;5030798;28;20227;-70
2023/06/04 10:06:40;;;;;;;2.07;1.87;;;;;;;21.08;43.73;97140.56;5036528;28;20194;-74
2023/06/04 10:09:09;;;;;;;2.20;2.10;;;;;;;21.00;42.98;97141.00;5047862;28;20215;-71
2023/06/04 10:11:41;;;;;;;2.93;2.53;;;;;;;21.14;44.44;97133.34;5046030;28;20192;-73
2023/06/04 10:14:12;;;;;;;3.13;2.83;;;;;;;21.14;42.46;97130.66;5002277;28;20305;-70
2023/06/04 10:16:41;;;;;;;3.43;2.90;;;;;;;21.22;43.24;97132.91;5046255;28;20211;-73
2023/06/04 10:19:09;;;;;;;2.60;2.33;;;;;;;21.30;44.52;97130.81;5032553;28;20203;-70
2023/06/04 10:21:37;;;;;;;2.57;2.37;;;;;;;21.21;43.47;97131.28;5038558;28;20210;-74
2023/06/04 10:24:06;;;;;;;3.00;2.80;;;;;;;21.21;42.17;97139.38;5042518;28;20268;-71
2023/06/04 10:26:34;;;;;;;3.37;2.77;;;;;;;21.20;42.91;97123.44;5054533;28;20447;-74
2023/06/04 10:29:02;;;;;;;3.87;2.90;;;;;;;21.09;42.71;97123.34;4994162;28;20607;-70
2023/06/04 10:31:31;;;;;;;3.20;3.00;;;;;;;21.18;41.15;97131.75;5049008;28;20261;-72
2023/06/04 10:33:59;;;;;;;3.07;2.33;;;;;;;21.23;41.11;97136.41;5022890;28;20265;-71
2023/06/04 10:36:28;;;;;;;2.63;2.43;;;;;;;21.14;43.10;97127.16;5053155;28;20729;-72
2023/06/04 10:38:56;;;;;;;2.93;2.57;;;;;;;21.11;40.76;97126.59;5048578;28;20257;-72
2023/06/04 10:41:25;;;;;;;2.93;2.73;;;;;;;21.31;42.98;97118.97;5048536;28;20199;-70
2023/06/04 10:44:01;;;;;;;3.70;2.67;;;;;;;21.35;41.47;97112.81;5038608;28;20295;-70
2023/06/04 10:46:40;;;;;;;2.90;2.70;;;;;;;21.67;42.15;97117.41;4998525;28;20297;-73
2023/06/04 10:49:10;;;;;;;3.27;2.97;;;;;;;21.81;41.04;97120.50;5022425;28;20221;-70
2023/06/04 10:51:37;;;;;;;2.67;2.47;;;;;;;21.60;39.92;97129.47;5029939;28;20227;-74
2023/06/04 10:54:05;;;;;;;2.60;2.40;;;;;;;21.65;41.06;97119.56;5049631;28;20272;-73
2023/06/04 10:56:34;;;;;;;2.63;2.47;;;;;;;21.90;41.16;97114.63;5051999;28;20740;-73
2023/06/04 10:59:14;;;;;;;3.07;2.80;;;;;;;21.87;41.02;97121.34;5041152;28;20206;-73
2023/06/04 11:01:43;;;;;;;2.73;2.57;;;;;;;21.67;40.65;97117.41;5003911;28;20210;-75
2023/06/04 11:04:20;;;;;;;3.20;2.80;;;;;;;21.75;40.68;97118.84;5028476;28;20227;-71
2023/06/04 11:06:48;;;;;;;3.30;2.23;;;;;;;22.00;40.32;97114.69;5026288;28;20242;-74
2023/06/04 11:09:16;;;;;;;3.30;3.00;;;;;;;22.06;39.70;97115.53;5044872;28;20226;-70
2023/06/04 11:11:44;;;;;;;3.10;2.90;;;;;;;22.24;40.47;97115.13;5049177;28;20202;-73
2023/06/04 11:14:12;;;;;;;2.80;2.60;;;;;;;22.15;39.93;97116.66;5041359;28;20230;-72
2023/06/04 11:16:40;;;;;;;2.63;2.43;;;;;;;22.05;40.98;97111.22;4999987;28;20226;-71
2023/06/04 11:19:09;;;;;;;3.13;2.83;;;;;;;22.12;40.69;97106.38;5048649;28;20288;-74
2023/06/04 11:21:37;;;;;;;2.70;2.50;;;;;;;21.91;38.26;97100.88;5033136;28;20879;-70
2023/06/04 11:24:06;;;;;;;3.00;2.80;;;;;;;22.02;39.38;97111.72;5030466;28;20384;-73
2023/06/04 11:26:34;;;;;;;3.90;2.77;;;;;;;21.90;38.59;97107.34;5046893;28;20304;-74
2023/06/04 11:29:07;;;;;;;2.80;2.50;;;;;;;22.18;42.40;97116.16;5042171;28;20689;-74
2023/06/04 11:31:42;;;;;;;2.43;2.33;;;;;;;22.60;39.62;97119.91;4998496;28;20242;-70
2023/06/04 11:34:11;;;;;;;2.60;2.33;;;;;;;22.57;37.02;97112.31;5047476;28;20237;-72
2023/06/04 11:36:39;;;;;;;4.20;2.63;;;;;;;22.80;40.36;97111.06;5030543;28;20287;-70
2023/06/04 11:39:07;;;;;;;3.10;2.80;;;;;;;22.95;37.68;97106.78;5021116;28;20294;-69
2023/06/04 11:41:36;;;;;;;2.80;2.60;;;;;;;22.37;36.82;97110.31;5052451;28;20226;-72